Latest Weather Observations for Winton

IDQ60801

Issued at 10:52 am EST Tuesday 14 July 2020 (issued every 10 minutes, with the page automatically refreshed every 10 minutes)

About weather observations | Map of weather stations | Latest weather observations for QLD | Other Formats
Station Details ID: 037039 Name: WINTON AIRPORT Lat: -22.36 Lon: 143.08 Height: 192.2 m
Data from the previous 72 hours. | See also: Recent months at Winton
Date/Time
EST
Temp
°C
App
Temp
°C
Dew
Point
°C
Rel
Hum
%
Delta-T
°C
Wind Press
QNH
hPa
Press
MSL
hPa
Rain since
9am
mm
Dir  Spd
km/h
Gust
km/h
Spd
kts
Gust
kts
14/10:30am 15.3 7.8 1.1 38 6.2 ESE 30 37 16 20 1024.2 1023.9 0.0
14/10:00am 14.2 7.1 1.2 41 5.6 SE 28 35 15 19 1024.4 1024.1 0.0
14/09:30am 13.1 7.1 1.1 44 5.2 ESE 22 28 12 15 1024.7 1024.4 0.0
14/09:00am 11.9 5.9 1.0 47 4.6 SE 22 30 12 16 1024.5 1024.2 0.0
14/08:30am 10.7 4.6 0.7 50 4.2 SE 22 28 12 15 1024.0 1023.7 0.0
14/08:00am 9.9 4.2 0.5 52 3.8 SE 20 26 11 14 1023.8 1023.5 0.0
14/07:30am 9.5 3.8 0.7 54 3.6 SE 20 28 11 15 1023.5 1023.2 0.0
14/07:00am 9.8 3.8 0.9 54 3.7 SE 22 28 12 15 1023.1 1022.8 0.0
14/06:30am 9.3 4.2 0.7 55 3.5 SSE 17 20 9 11 1023.0 1022.7 0.0
14/06:00am 9.2 4.5 0.6 55 3.5 SSE 15 20 8 11 1022.7 1022.3 0.0
14/05:30am 9.2 4.4 0.4 54 3.6 SE 15 19 8 10 1022.4 1022.0 0.0
14/05:00am 9.9 4.8 0.5 52 3.8 SSE 17 22 9 12 1022.4 1022.0 0.0
14/04:30am 9.9 4.8 0.5 52 3.9 SSE 17 20 9 11 1022.4 1022.0 0.0
14/04:00am 9.7 4.9 0.3 52 3.8 SSE 15 20 8 11 1022.7 1022.3 0.0
14/03:30am 8.4 4.0 0.1 56 3.3 SSE 13 17 7 9 1022.7 1022.3 0.0
14/03:00am 8.0 2.6 -1.2 52 3.5 S 17 20 9 11 1022.4 1022.0 0.0
14/02:30am 7.6 2.6 -1.1 54 3.4 SSE 15 15 8 8 1022.6 1022.2 0.0
14/02:00am 8.5 2.6 -1.0 51 3.7 S 20 22 11 12 1022.8 1022.4 0.0
14/01:30am 8.3 2.5 -1.2 51 3.7 S 19 20 10 11 1022.8 1022.4 0.0
14/01:00am 7.7 4.1 -2.0 50 3.6 S 7 11 4 6 1023.1 1022.8 0.0
14/12:30am 7.3 3.8 -2.7 49 3.7 SSE 6 7 3 4 1023.3 1023.0 0.0
14/12:00am 9.0 5.6 -2.0 46 4.2 SSE 6 9 3 5 1023.4 1023.1 0.0
 
Date/Time
EST
Temp
°C
App
Temp
°C
Dew
Point
°C
Rel
Hum
%
Delta-T
°C
Wind Press
QNH
hPa
Press
MSL
hPa
Rain since
9am
mm
Dir  Spd
km/h
Gust
km/h
Spd
kts
Gust
kts
13/11:30pm 8.6 5.5 -2.3 46 4.1 S 4 6 2 3 1023.4 1023.1 0.0
13/11:00pm 7.9 4.1 -3.6 44 4.2 SSW 7 9 4 5 1023.3 1023.0 0.0
13/10:30pm 8.5 5.0 -3.0 44 4.3 S 6 6 3 3 1023.2 1022.9 0.0
13/10:00pm 8.1 3.9 -3.7 43 4.3 S 9 13 5 7 1023.2 1022.9 0.0
13/09:30pm 10.4 6.7 -2.9 39 5.1 S 7 9 4 5 1022.9 1022.6 0.0
13/09:00pm 9.9 5.7 -3.7 38 5.0 S 9 9 5 5 1022.5 1022.1 0.0
13/08:30pm 12.7 8.4 -2.0 36 5.9 S 11 13 6 7 1022.2 1021.8 0.0
13/08:00pm 12.4 8.3 -3.0 34 6.0 S 9 11 5 6 1022.1 1021.7 0.0
13/07:30pm 12.5 8.0 -3.3 33 6.1 S 11 13 6 7 1022.0 1021.6 0.0
13/07:00pm 12.5 7.9 -3.7 32 6.2 S 11 13 6 7 1021.7 1021.3 0.0
13/06:30pm 14.7 10.3 -2.7 30 7.0 S 11 13 6 7 1021.3 1021.0 0.0
13/06:00pm 17.2 12.4 -2.4 26 8.1 SSW 13 19 7 10 1021.0 1020.7 0.0
13/05:30pm 18.9 13.7 -2.7 23 9.0 S 15 20 8 11 1021.0 1020.7 0.0
13/05:00pm 19.8 13.8 -3.1 21 9.5 S 19 28 10 15 1020.7 1020.4 0.0
13/04:30pm 20.3 14.3 -3.4 20 9.9 SSW 19 24 10 13 1020.5 1020.2 0.0
13/04:00pm 20.8 15.2 -3.0 20 10.0 SSW 17 24 9 13 1020.5 1020.2 0.0
13/03:30pm 20.8 15.6 -3.0 20 10.1 SSW 15 24 8 13 1020.6 1020.3 0.0
13/03:00pm 20.8 15.0 -1.7 22 9.7 SSE 19 28 10 15 1020.7 1020.4 0.0
13/02:30pm 20.1 15.1 -1.1 24 9.3 SSW 15 20 8 11 1020.7 1020.4 0.0
13/02:00pm 19.4 14.6 -0.1 27 8.6 SSE 15 24 8 13 1021.0 1020.7 0.0
13/01:30pm 19.1 14.3 0.2 28 8.4 SSE 15 22 8 12 1021.6 1021.2 0.0
13/01:00pm 18.5 14.2 1.1 31 7.8 S 13 24 7 13 1021.9 1021.5 0.0
13/12:30pm 17.8 14.0 1.7 34 7.3 SSE 11 22 6 12 1022.4 1022.0 0.0
13/12:00pm 17.4 13.7 2.6 37 6.8 SE 11 22 6 12 1023.1 1022.8 0.0
13/11:30am 16.3 11.4 2.3 39 6.3 SE 17 26 9 14 1023.4 1023.1 0.0
13/11:00am 16.0 11.2 2.8 41 6.0 SE 17 26 9 14 1023.8 1023.5 0.0
13/10:30am 15.6 10.0 3.4 44 5.6 SSE 22 33 12 18 1024.1 1023.8 0.0
13/10:00am 15.1 9.5 3.6 46 5.3 SSE 22 30 12 16 1024.0 1023.7 0.0
13/09:30am 14.0 9.0 3.5 49 4.8 SSE 19 22 10 12 1023.9 1023.6 0.0
13/09:00am 12.5 7.9 3.5 54 4.0 SSE 17 22 9 12 1023.8 1023.5 0.0
13/08:30am 9.9 7.3 3.0 62 3.0 S 6 9 3 5 1023.7 1023.4 0.0
13/08:00am 6.8 4.2 1.1 67 2.3 SSW 4 4 2 2 1023.3 1023.0 0.0
13/07:30am 5.0 1.7 0.0 70 1.9 S 7 9 4 5 1022.9 1022.6 0.0
13/07:00am 5.9 2.7 0.9 70 2.0 S 7 9 4 5 1022.5 1022.1 0.0
13/06:30am 5.7 2.7 0.5 69 2.0 SSE 6 7 3 4 1022.2 1021.8 0.0
13/06:00am 4.5 1.3 -0.7 69 1.9 S 6 9 3 5 1021.8 1021.4 0.0
13/05:30am 4.4 0.5 -1.2 67 2.1 SSW 9 11 5 6 1021.5 1021.1 0.0
13/05:00am 4.9 2.0 -0.9 66 2.2 S 4 7 2 4 1021.3 1021.0 0.0
13/04:30am 5.2 0.5 -1.5 62 2.5 SW 13 13 7 7 1021.2 1020.9 0.0
13/04:00am 5.7 0.3 -1.2 61 2.6 SSW 17 19 9 10 1021.2 1020.9 0.0
13/03:30am 5.8 0.8 -1.3 60 2.7 SSW 15 15 8 8 1021.2 1020.9 0.0
13/03:00am 5.9 1.6 -1.5 59 2.8 SSW 11 13 6 7 1021.3 1021.0 0.0
13/02:30am 5.4 1.0 -2.2 58 2.8 SSW 11 13 6 7 1021.2 1020.9 0.0
13/02:00am 6.4 1.7 -1.7 56 3.0 SSW 13 15 7 8 1021.3 1021.0 0.0
13/01:30am 5.9 0.8 -2.2 56 3.0 SSW 15 15 8 8 1021.3 1021.0 0.0
13/01:00am 6.3 1.5 -2.3 54 3.2 SSW 13 15 7 8 1021.2 1020.9 0.0
13/12:30am 7.3 2.5 -2.4 50 3.6 SSW 13 13 7 7 1021.2 1020.9 0.0
13/12:00am 7.3 2.9 -2.4 50 3.6 SSW 11 13 6 7 1021.2 1020.9 0.0
 
Date/Time
EST
Temp
°C
App
Temp
°C
Dew
Point
°C
Rel
Hum
%
Delta-T
°C
Wind Press
QNH
hPa
Press
MSL
hPa
Rain since
9am
mm
Dir  Spd
km/h
Gust
km/h
Spd
kts
Gust
kts
12/11:30pm 7.8 2.6 -2.5 48 3.8 SW 15 15 8 8 1021.2 1020.9 0.0
12/11:00pm 8.5 3.3 -2.7 45 4.2 SW 15 15 8 8 1021.2 1020.9 0.0
12/10:30pm 9.3 4.5 -2.6 43 4.5 SW 13 15 7 8 1021.3 1021.0 0.0
12/10:00pm 10.3 5.9 -2.7 40 5.0 SW 11 13 6 7 1021.1 1020.8 0.0
12/09:30pm 10.6 6.5 -3.1 38 5.2 SW 9 9 5 5 1020.7 1020.4 0.0
12/09:00pm 10.7 6.2 -3.0 38 5.2 WSW 11 13 6 7 1020.7 1020.4 0.0
12/08:30pm 10.5 5.6 -3.6 37 5.3 SW 13 13 7 7 1020.2 1019.9 0.0
12/08:00pm 11.6 6.6 -4.1 33 5.9 SW 13 15 7 8 1019.9 1019.6 0.0
12/07:30pm 13.5 8.8 -4.6 28 6.9 SW 11 11 6 6 1019.3 1019.0 0.0
12/07:00pm 12.8 8.1 -4.8 29 6.6 SW 11 13 6 7 1019.0 1018.7 0.0
12/06:30pm 14.4 9.7 -4.8 26 7.3 SW 11 13 6 7 1018.5 1018.2 0.0
12/06:00pm 16.8 11.8 -4.4 23 8.4 SSW 13 15 7 8 1018.3 1017.9 0.0
12/05:30pm 20.0 15.0 -4.3 19 9.9 SSW 13 17 7 9 1018.0 1017.6 0.0
12/05:00pm 20.9 15.9 -4.3 18 10.4 SW 13 22 7 12 1018.0 1017.6 0.0
12/04:30pm 21.4 15.1 -3.9 18 10.6 WSW 20 28 11 15 1017.7 1017.3 0.0
12/04:00pm 21.9 16.3 -2.7 19 10.6 SW 17 26 9 14 1017.7 1017.3 0.0
12/03:30pm 22.3 17.6 -1.7 20 10.6 WSW 13 24 7 13 1017.8 1017.4 0.0
12/03:00pm 22.0 16.5 -2.0 20 10.4 SW 17 28 9 15 1017.9 1017.5 0.0
12/02:30pm 22.0 16.4 -2.7 19 10.6 SW 17 26 9 14 1018.3 1017.9 0.0
12/02:00pm 21.4 16.0 -1.2 22 9.9 SW 17 30 9 16 1018.5 1018.2 0.0
12/01:30pm 21.6 15.9 -1.0 22 10.0 SSW 19 24 10 13 1018.7 1018.4 0.0
12/01:00pm 20.6 15.2 -1.2 23 9.5 SSW 17 22 9 12 1019.4 1019.1 0.0
12/12:30pm 19.9 15.1 0.4 27 8.8 SSW 15 26 8 14 1019.9 1019.6 0.0
12/12:00pm 19.2 14.9 1.2 30 8.1 SSW 13 24 7 13 1020.3 1020.0 0.0
12/11:30am 18.6 13.9 1.2 31 7.9 S 15 24 8 13 1020.7 1020.4 0.0
12/11:00am 18.0 13.0 1.1 32 7.6 S 17 26 9 14 1021.1 1020.8 0.0
12/10:30am 17.4 12.0 1.4 34 7.2 S 19 26 10 14 1021.2 1020.9 0.0
12/10:00am 16.4 11.0 1.3 36 6.7 S 19 24 10 13 1021.1 1020.8 0.0
12/09:30am 14.7 9.2 0.5 38 6.1 S 19 26 10 14 1021.1 1020.8 0.0
12/09:00am 14.2 8.2 0.8 40 5.8 S 22 32 12 17 1020.8 1020.5 -
12/08:30am 14.5 8.5 1.1 40 5.8 S 22 32 12 17 1020.4 1020.1 -
12/08:00am 13.4 8.1 1.7 45 5.1 S 19 26 10 14 1020.2 1019.9 -
12/07:30am 11.9 8.1 1.8 50 4.4 S 11 17 6 9 1020.0 1019.7 -
12/07:00am 11.9 7.4 2.4 52 4.1 SSW 15 19 8 10 1019.5 1019.2 -
12/06:30am 12.0 7.5 2.2 51 4.3 SSW 15 19 8 10 1018.9 1018.6 -
12/06:00am 12.2 7.7 2.1 50 4.4 SSW 15 19 8 10 1018.7 1018.4 -
12/05:30am 11.4 7.2 1.6 51 4.2 SSW 13 17 7 9 1018.4 1018.1 -
12/05:00am 10.8 7.5 0.2 48 4.4 SSE 7 13 4 7 1018.2 1017.8 -
12/04:30am 12.7 8.1 1.4 46 4.9 SSW 15 17 8 9 1018.1 1017.7 -
12/04:00am 12.6 9.6 0.7 44 5.0 SE 6 7 3 4 1018.2 1017.8 -
12/03:30am 12.8 8.3 -0.1 41 5.4 SSW 13 13 7 7 1017.9 1017.5 -
12/03:00am 13.1 9.8 0.2 41 5.4 SSW 7 9 4 5 1017.7 1017.3 0.0
12/02:30am 12.3 8.9 -0.9 40 5.4 W 7 9 4 5 1017.5 1017.1 -
12/02:00am 12.2 9.3 -1.0 40 5.4 SW 4 6 2 3 1017.4 1017.0 -
12/01:30am 12.3 10.2 -0.6 41 5.3 CALM 0 0 0 0 1017.6 1017.2 -
12/01:00am 11.8 9.3 -1.3 40 5.3 SSW 2 4 1 2 1017.6 1017.2 -
12/12:30am 12.9 8.8 -0.4 40 5.5 SW 11 11 6 6 1017.6 1017.2 -
12/12:00am 12.6 8.8 -1.0 39 5.5 SW 9 11 5 6 1017.8 1017.4 -
 
Date/Time
EST
Temp
°C
App
Temp
°C
Dew
Point
°C
Rel
Hum
%
Delta-T
°C
Wind Press
QNH
hPa
Press
MSL
hPa
Rain since
9am
mm
Dir  Spd
km/h
Gust
km/h
Spd
kts
Gust
kts
11/11:30pm 12.9 9.1 -1.1 38 5.7 WSW 9 13 5 7 1017.9 1017.5 -
11/11:00pm 14.4 11.1 -1.2 34 6.4 S 6 6 3 3 1017.9 1017.5 -
11/10:30pm 14.9 11.5 -0.8 34 6.6 S 7 9 4 5 1017.9 1017.5 -
11/10:00pm 15.2 10.9 -1.4 32 6.9 S 11 13 6 7 1017.9 1017.5 -
11/09:30pm 14.7 10.5 -1.0 34 6.5 SSW 11 13 6 7 1017.9 1017.5 -
11/09:00pm 16.1 12.0 -0.2 33 7.0 SW 11 13 6 7 1017.8 1017.4 -
11/08:30pm 17.1 12.7 0.3 32 7.4 SW 13 13 7 7 1017.6 1017.2 -
11/08:00pm - - - - - SSW 11 11 6 6 - - 0.0
11/07:30pm 16.9 12.5 0.1 32 7.3 SSW 13 13 7 7 1017.1 1016.7 0.0
11/07:00pm 18.5 14.1 0.6 30 8.0 SSW 13 15 7 8 1016.8 1016.4 0.0
11/06:30pm 19.8 15.5 0.8 28 8.6 SSW 13 15 7 8 1016.4 1016.0 0.0
11/06:00pm 23.5 18.8 1.2 23 10.5 SW 15 17 8 9 1016.1 1015.7 0.0
11/05:30pm 25.9 20.3 1.2 20 11.8 SW 20 28 11 15 1015.7 1015.4 0.0
11/05:00pm 27.0 21.1 4.1 23 11.6 SW 24 32 13 17 1015.5 1015.2 0.0
11/04:30pm 27.4 22.9 6.2 26 11.2 SW 19 26 10 14 1015.3 1015.0 0.0
11/04:00pm 27.9 23.5 6.6 26 11.3 SW 19 26 10 14 1015.1 1014.8 0.0
11/03:30pm 28.1 23.7 7.4 27 11.2 WSW 20 33 11 18 1015.1 1014.8 0.0
11/03:00pm 28.3 24.1 7.5 27 11.3 SW 19 30 10 16 1015.3 1015.0 0.0
11/02:30pm 27.6 25.8 9.4 32 10.2 W 9 19 5 10 1015.5 1015.2 0.0
11/02:00pm 27.6 25.7 9.0 31 10.3 WSW 9 17 5 9 1015.8 1015.5 0.0
11/01:30pm - - - - - SW 13 20 7 11 1016.2 1015.8 0.0
11/01:00pm - - - - - - - - - - - - 0.0
11/12:30pm 26.2 25.4 11.2 39 8.6 SSE 6 11 3 6 1017.2 1016.8 0.0
11/12:00pm 25.1 25.0 12.0 44 7.5 S 4 7 2 4 1017.7 1017.3 0.0
11/11:30am 24.6 24.8 11.9 45 7.3 NNE 2 6 1 3 1018.1 1017.7 0.0
11/11:00am 23.8 24.1 12.1 48 6.7 N 2 6 1 3 1018.6 1018.3 0.0

Other formats

Comma delimited format used in spreadsheet applications
http://www.bom.gov.au/fwo/IDQ60801/IDQ60801.94342.axf

JavaScript Object Notation format (JSON) in row-major order
http://www.bom.gov.au/fwo/IDQ60801/IDQ60801.94342.json

Data quality

Most of these data are generated automatically and are frequently updated. Quality checks on data are not normally performed. It is possible for incorrect values to appear. Refer to information at About Latest Weather Observations and please check the disclaimer before using these data.